createdAt,value
2023-05-15T00:00:37.767Z,64.63
2023-05-15T00:03:05.004Z,64.71
2023-05-15T00:05:31.793Z,64.66
2023-05-15T00:07:58.735Z,64.88
2023-05-15T00:10:25.473Z,65.12
2023-05-15T00:12:52.219Z,65.25
2023-05-15T00:15:18.961Z,65.22
2023-05-15T00:17:45.790Z,65.34
2023-05-15T00:20:13.102Z,65.53
2023-05-15T00:22:40.964Z,65.73
2023-05-15T00:25:08.071Z,65.80
2023-05-15T00:27:34.825Z,65.85
2023-05-15T00:30:01.522Z,65.86
2023-05-15T00:32:28.397Z,66.22
2023-05-15T00:34:55.306Z,66.41
2023-05-15T00:37:23.270Z,66.59
2023-05-15T00:39:50.015Z,66.61
2023-05-15T00:42:18.425Z,66.65
2023-05-15T00:44:45.952Z,66.77
2023-05-15T00:47:13.833Z,67.06
2023-05-15T00:49:41.812Z,67.25
2023-05-15T00:52:11.511Z,67.22
2023-05-15T00:54:38.252Z,67.32
2023-05-15T00:57:06.619Z,67.39
2023-05-15T00:59:34.710Z,67.56
2023-05-15T01:02:01.599Z,67.75
2023-05-15T01:04:29.614Z,67.60
2023-05-15T01:06:56.951Z,67.77
2023-05-15T01:09:30.132Z,67.93
2023-05-15T01:11:59.204Z,67.99
2023-05-15T01:14:25.965Z,68.33
2023-05-15T01:16:53.699Z,68.32
2023-05-15T01:19:20.696Z,68.53
2023-05-15T01:22:15.553Z,68.80
2023-05-15T01:25:03.980Z,68.57
2023-05-15T01:27:37.253Z,68.63
2023-05-15T01:30:18.378Z,68.63
2023-05-15T01:33:02.728Z,68.66
2023-05-15T01:35:45.342Z,68.76
2023-05-15T01:38:27.849Z,69.05
2023-05-15T01:41:03.392Z,68.92
2023-05-15T01:43:33.788Z,69.12
2023-05-15T01:46:00.883Z,69.15
2023-05-15T01:48:29.141Z,69.54
2023-05-15T01:51:01.417Z,69.71
2023-05-15T01:53:29.190Z,69.87
2023-05-15T01:55:56.995Z,69.77
2023-05-15T01:58:26.879Z,70.00
2023-05-15T02:00:54.126Z,69.91
2023-05-15T02:03:21.379Z,70.23
2023-05-15T02:05:49.225Z,70.13
2023-05-15T02:08:16.846Z,70.16
2023-05-15T02:10:44.477Z,70.46
2023-05-15T02:13:12.740Z,70.32
2023-05-15T02:15:39.620Z,70.55
2023-05-15T02:18:06.622Z,70.38
2023-05-15T02:20:33.364Z,70.62
2023-05-15T02:23:00.057Z,70.65
2023-05-15T02:25:38.749Z,70.87
2023-05-15T02:28:11.666Z,71.01
2023-05-15T02:30:55.503Z,70.85
2023-05-15T02:33:42.616Z,71.07
2023-05-15T02:36:14.401Z,70.86
2023-05-15T02:38:53.782Z,70.75
2023-05-15T02:41:23.196Z,71.01
2023-05-15T02:43:52.281Z,71.01
2023-05-15T02:46:21.443Z,71.25
2023-05-15T02:48:48.957Z,71.18
2023-05-15T02:51:16.053Z,71.45
2023-05-15T02:53:43.682Z,71.42
2023-05-15T02:56:10.601Z,71.55
2023-05-15T02:58:38.137Z,71.95
2023-05-15T03:01:05.106Z,71.89
2023-05-15T03:03:31.913Z,72.00
2023-05-15T03:06:00.899Z,72.02
2023-05-15T03:08:29.570Z,72.14
2023-05-15T03:10:56.206Z,72.32
2023-05-15T03:13:22.895Z,72.51
2023-05-15T03:15:49.668Z,72.50
2023-05-15T03:18:19.063Z,72.85
2023-05-15T03:20:49.265Z,72.63
2023-05-15T03:23:16.183Z,72.92
2023-05-15T03:25:42.865Z,72.91
2023-05-15T03:28:09.681Z,72.88
2023-05-15T03:30:36.388Z,72.99
2023-05-15T03:33:06.791Z,73.06
2023-05-15T03:35:33.646Z,73.00
2023-05-15T03:38:00.490Z,73.04
2023-05-15T03:40:29.707Z,73.07
2023-05-15T03:42:56.406Z,73.14
2023-05-15T03:45:23.643Z,73.42
2023-05-15T03:47:50.907Z,73.53
2023-05-15T03:50:18.076Z,73.49
2023-05-15T03:52:44.778Z,73.57
2023-05-15T03:55:12.041Z,73.48
2023-05-15T03:57:38.896Z,73.56
2023-05-15T04:00:10.323Z,73.86
2023-05-15T04:02:37.595Z,73.90
2023-05-15T04:05:05.486Z,74.06
2023-05-15T04:07:34.082Z,74.13
2023-05-15T04:10:01.721Z,74.07
2023-05-15T04:12:29.810Z,73.99
2023-05-15T04:15:13.235Z,74.00
2023-05-15T04:17:39.969Z,74.02
2023-05-15T04:20:07.621Z,74.16
2023-05-15T04:22:34.378Z,74.36
2023-05-15T04:25:01.042Z,74.33
2023-05-15T04:27:27.945Z,74.23
2023-05-15T04:29:54.650Z,74.41
2023-05-15T04:32:22.055Z,74.60
2023-05-15T04:34:48.740Z,74.46
2023-05-15T04:37:15.692Z,74.61
2023-05-15T04:39:42.389Z,74.84
2023-05-15T04:42:09.084Z,74.70
2023-05-15T04:44:35.990Z,74.88
2023-05-15T04:47:02.783Z,74.88
2023-05-15T04:49:29.472Z,74.61
2023-05-15T04:51:56.185Z,74.89
2023-05-15T04:54:22.929Z,75.33
2023-05-15T04:56:49.612Z,75.20
2023-05-15T04:59:17.644Z,75.14
2023-05-15T05:01:45.658Z,75.40
2023-05-15T05:04:12.429Z,75.76
2023-05-15T05:06:39.184Z,75.66
2023-05-15T05:09:05.967Z,75.88
2023-05-15T05:11:32.692Z,75.80
2023-05-15T05:13:59.400Z,75.60
2023-05-15T05:16:26.146Z,75.83
2023-05-15T05:18:52.938Z,76.12
2023-05-15T05:21:19.739Z,75.75
2023-05-15T05:23:47.348Z,76.14
2023-05-15T05:26:14.023Z,76.15
2023-05-15T05:28:40.890Z,76.04
2023-05-15T05:31:07.681Z,76.15
2023-05-15T05:33:34.727Z,76.17
2023-05-15T05:36:01.389Z,76.19
2023-05-15T05:38:28.098Z,76.32
2023-05-15T05:40:54.876Z,76.52
2023-05-15T05:43:21.650Z,76.62
2023-05-15T05:45:48.537Z,76.49
2023-05-15T05:48:15.402Z,76.13
2023-05-15T05:50:42.449Z,76.53
2023-05-15T05:53:09.270Z,76.42
2023-05-15T05:55:36.109Z,76.47
2023-05-15T05:58:06.410Z,76.44
2023-05-15T06:00:35.483Z,76.40
2023-05-15T06:03:02.968Z,76.71
2023-05-15T06:05:29.819Z,76.53
2023-05-15T06:07:56.919Z,76.82
2023-05-15T06:10:23.790Z,76.44
2023-05-15T06:12:50.589Z,76.62
2023-05-15T06:15:17.263Z,76.50
2023-05-15T06:17:43.992Z,76.21
2023-05-15T06:20:10.977Z,76.66
2023-05-15T06:22:39.081Z,76.57
2023-05-15T06:25:06.587Z,76.58
2023-05-15T06:27:34.590Z,76.54
2023-05-15T06:30:01.369Z,76.33
2023-05-15T06:32:29.595Z,76.37
2023-05-15T06:34:56.392Z,76.49
2023-05-15T06:37:23.042Z,76.34
2023-05-15T06:39:49.764Z,76.16
2023-05-15T06:42:16.456Z,76.19
2023-05-15T06:44:43.166Z,76.47
2023-05-15T06:47:10.022Z,76.31
2023-05-15T06:49:36.832Z,76.18
2023-05-15T06:52:03.732Z,76.27
2023-05-15T06:54:30.420Z,76.03
2023-05-15T06:56:57.092Z,76.08
2023-05-15T06:59:23.808Z,76.04
2023-05-15T07:01:50.749Z,76.02
2023-05-15T07:04:17.556Z,75.96
2023-05-15T07:06:44.291Z,76.00
2023-05-15T07:09:13.134Z,75.93
2023-05-15T07:11:40.291Z,75.95
2023-05-15T07:14:08.081Z,75.94
2023-05-15T07:16:34.799Z,75.88
2023-05-15T07:19:01.725Z,75.96
2023-05-15T07:21:31.167Z,75.97
2023-05-15T07:23:58.519Z,76.11
2023-05-15T07:26:34.296Z,76.33
2023-05-15T07:29:05.540Z,76.61
2023-05-15T07:31:33.655Z,76.89
2023-05-15T07:34:00.436Z,77.44
2023-05-15T07:36:27.162Z,77.96
2023-05-15T07:38:53.908Z,78.41
2023-05-15T07:41:20.960Z,78.68
2023-05-15T07:43:47.626Z,79.35
2023-05-15T07:46:14.447Z,79.73
2023-05-15T07:48:41.263Z,80.50
2023-05-15T07:51:08.462Z,81.28
2023-05-15T07:53:35.203Z,82.17
2023-05-15T07:56:01.924Z,83.27
2023-05-15T07:58:28.802Z,84.44
2023-05-15T08:00:55.509Z,83.63
2023-05-15T08:03:22.448Z,82.61
2023-05-15T08:05:49.280Z,81.18
2023-05-15T08:08:16.097Z,78.18
2023-05-15T08:10:42.861Z,74.96
2023-05-15T08:13:09.597Z,71.65
2023-05-15T08:15:36.324Z,68.72
2023-05-15T08:18:08.530Z,65.61
2023-05-15T08:20:35.278Z,62.92
2023-05-15T08:23:02.023Z,60.45
2023-05-15T08:25:28.699Z,58.67
2023-05-15T08:27:55.423Z,56.43
2023-05-15T08:30:22.264Z,55.30
2023-05-15T08:32:49.305Z,52.96
2023-05-15T08:35:16.156Z,52.12
2023-05-15T08:37:42.801Z,50.91
2023-05-15T08:40:10.812Z,49.76
2023-05-15T08:42:45.813Z,49.15
2023-05-15T08:45:14.000Z,48.34
2023-05-15T08:47:42.481Z,47.13
2023-05-15T08:50:14.208Z,46.70
2023-05-15T08:52:43.632Z,47.90
2023-05-15T08:55:11.765Z,47.20
2023-05-15T08:57:40.231Z,45.82
2023-05-15T09:00:09.497Z,45.07
2023-05-15T09:02:37.616Z,44.21
2023-05-15T09:05:06.256Z,45.38
2023-05-15T09:07:34.121Z,46.01
2023-05-15T09:10:03.800Z,46.03
2023-05-15T09:12:34.160Z,46.38
2023-05-15T09:15:18.129Z,45.24
2023-05-15T09:17:45.879Z,43.93
2023-05-15T09:20:36.401Z,43.67
2023-05-15T09:23:05.500Z,43.97
2023-05-15T09:25:40.676Z,44.76
2023-05-15T09:28:10.664Z,44.47
2023-05-15T09:30:42.291Z,43.42
2023-05-15T09:33:09.795Z,42.75
2023-05-15T09:35:38.709Z,41.61
2023-05-15T09:38:10.643Z,40.96
2023-05-15T09:40:39.241Z,40.62
2023-05-15T09:43:05.953Z,39.74
2023-05-15T09:45:32.644Z,40.02
2023-05-15T09:48:07.289Z,40.52
2023-05-15T09:50:36.517Z,42.04
2023-05-15T09:53:04.204Z,43.06
2023-05-15T09:55:34.855Z,44.22
2023-05-15T09:58:15.719Z,45.73
2023-05-15T10:00:47.357Z,46.31
2023-05-15T10:03:19.852Z,46.27
2023-05-15T10:05:46.997Z,45.07
2023-05-15T10:08:15.947Z,43.87
2023-05-15T10:10:43.785Z,42.34
2023-05-15T10:13:11.936Z,41.88
2023-05-15T10:15:39.868Z,42.83
2023-05-15T10:18:07.984Z,41.86
2023-05-15T10:20:36.035Z,42.72
2023-05-15T10:23:06.001Z,43.54
2023-05-15T10:25:45.893Z,44.31
2023-05-15T10:28:12.680Z,43.78
2023-05-15T10:30:39.537Z,44.15
2023-05-15T10:33:07.575Z,44.58
2023-05-15T10:35:36.322Z,45.25
2023-05-15T10:38:06.194Z,45.80
2023-05-15T10:40:36.800Z,46.80
2023-05-15T10:43:05.055Z,47.12
2023-05-15T10:45:32.863Z,47.42
2023-05-15T10:48:01.115Z,47.58
2023-05-15T10:50:28.137Z,47.85
2023-05-15T10:52:56.053Z,47.60
2023-05-15T10:55:23.316Z,48.15
2023-05-15T10:57:50.193Z,48.27
2023-05-15T11:00:23.253Z,48.27
2023-05-15T11:02:56.572Z,47.84
2023-05-15T11:05:24.404Z,47.77
2023-05-15T11:08:27.419Z,47.28
2023-05-15T11:10:54.605Z,46.92
2023-05-15T11:13:21.897Z,46.61
2023-05-15T11:15:49.222Z,46.46
2023-05-15T11:18:16.689Z,46.52
2023-05-15T11:20:52.485Z,46.24
2023-05-15T11:23:23.233Z,46.24
2023-05-15T11:26:01.680Z,45.74
2023-05-15T11:28:30.031Z,45.90
2023-05-15T11:31:07.103Z,45.74
2023-05-15T11:33:33.962Z,45.41
2023-05-15T11:36:01.678Z,45.11
2023-05-15T11:38:28.510Z,45.38
2023-05-15T11:40:58.694Z,45.74
2023-05-15T11:43:32.260Z,46.51
2023-05-15T11:46:10.280Z,46.79
2023-05-15T11:48:44.793Z,46.59
2023-05-15T11:51:19.975Z,46.55
2023-05-15T11:53:47.496Z,46.01
2023-05-15T11:56:22.998Z,46.03
2023-05-15T11:58:50.872Z,46.06
2023-05-15T12:01:17.835Z,45.81
2023-05-15T12:03:47.850Z,45.79
2023-05-15T12:06:14.901Z,45.26
2023-05-15T12:08:42.271Z,44.60
2023-05-15T12:11:10.953Z,45.13
2023-05-15T12:13:37.685Z,44.78
2023-05-15T12:16:05.210Z,44.88
2023-05-15T12:18:33.082Z,44.74
2023-05-15T12:21:00.645Z,45.06
2023-05-15T12:23:29.301Z,45.26
2023-05-15T12:26:03.433Z,44.78
2023-05-15T12:28:31.672Z,44.37
2023-05-15T12:30:59.558Z,44.38
2023-05-15T12:33:26.689Z,44.00
2023-05-15T12:36:00.257Z,43.38
2023-05-15T12:38:28.185Z,43.16
2023-05-15T12:40:55.358Z,42.64
2023-05-15T12:43:25.175Z,42.10
2023-05-15T12:45:56.123Z,41.69
2023-05-15T12:48:32.758Z,41.39
2023-05-15T12:51:07.645Z,41.28
2023-05-15T12:53:35.077Z,41.41
2023-05-15T12:56:02.314Z,41.24
2023-05-15T12:58:29.168Z,41.24
2023-05-15T13:00:57.077Z,40.63
2023-05-15T13:03:25.253Z,40.18
2023-05-15T13:05:53.139Z,39.52
2023-05-15T13:08:19.864Z,39.09
2023-05-15T13:10:47.834Z,38.92
2023-05-15T13:13:16.733Z,40.05
2023-05-15T13:15:44.858Z,40.02
2023-05-15T13:18:18.485Z,40.37
2023-05-15T13:20:47.272Z,40.17
2023-05-15T13:23:24.959Z,40.82
2023-05-15T13:25:51.697Z,40.86
2023-05-15T13:28:18.424Z,41.56
2023-05-15T13:30:45.971Z,42.54
2023-05-15T13:33:13.058Z,43.94
2023-05-15T13:35:43.399Z,44.25
2023-05-15T13:38:11.869Z,44.46
2023-05-15T13:40:39.209Z,44.36
2023-05-15T13:43:08.788Z,45.01
2023-05-15T13:45:35.830Z,45.52
2023-05-15T13:48:02.677Z,45.87
2023-05-15T13:50:29.453Z,46.07
2023-05-15T13:52:56.468Z,45.92
2023-05-15T13:55:23.555Z,45.78
2023-05-15T13:57:51.448Z,46.17
2023-05-15T14:00:18.729Z,45.91
2023-05-15T14:02:45.523Z,46.04
2023-05-15T14:05:14.577Z,46.48
2023-05-15T14:07:42.196Z,46.11
2023-05-15T14:10:09.460Z,46.88
2023-05-15T14:12:37.217Z,46.47
2023-05-15T14:15:04.407Z,46.85
2023-05-15T14:17:31.329Z,47.19
2023-05-15T14:19:58.044Z,47.71
2023-05-15T14:22:25.245Z,48.09
2023-05-15T14:24:53.379Z,48.13
2023-05-15T14:27:21.377Z,48.00
2023-05-15T14:29:49.498Z,47.64
2023-05-15T14:32:16.892Z,47.42
2023-05-15T14:34:43.971Z,47.76
2023-05-15T14:37:10.891Z,46.81
2023-05-15T14:39:37.738Z,47.27
2023-05-15T14:42:04.789Z,47.46
2023-05-15T14:44:31.643Z,46.52
2023-05-15T14:47:12.850Z,46.04
2023-05-15T14:49:40.162Z,46.12
2023-05-15T14:52:09.233Z,45.53
2023-05-15T14:54:36.567Z,44.95
2023-05-15T14:57:04.036Z,44.94
2023-05-15T14:59:31.004Z,45.02
2023-05-15T15:01:57.815Z,45.19
2023-05-15T15:04:26.826Z,45.14
2023-05-15T15:06:57.163Z,45.33
2023-05-15T15:09:25.652Z,44.87
2023-05-15T15:11:53.815Z,44.71
2023-05-15T15:14:20.957Z,43.64
2023-05-15T15:16:48.113Z,43.54
2023-05-15T15:19:16.722Z,43.28
2023-05-15T15:21:45.170Z,43.02
2023-05-15T15:24:11.937Z,42.54
2023-05-15T15:26:38.696Z,42.59
2023-05-15T15:29:05.885Z,42.59
2023-05-15T15:31:32.984Z,41.59
2023-05-15T15:33:59.830Z,41.64
2023-05-15T15:36:26.590Z,41.32
2023-05-15T15:38:53.598Z,41.33
2023-05-15T15:41:23.718Z,40.41
2023-05-15T15:43:50.673Z,39.52
2023-05-15T15:46:17.535Z,38.58
2023-05-15T15:48:44.587Z,37.82
2023-05-15T15:51:12.519Z,37.25
2023-05-15T15:53:40.488Z,37.50
2023-05-15T15:56:07.670Z,37.39
2023-05-15T15:58:34.478Z,37.49
2023-05-15T16:01:02.965Z,37.41
2023-05-15T16:03:31.846Z,37.44
2023-05-15T16:06:00.952Z,37.92
2023-05-15T16:08:27.706Z,38.07
2023-05-15T16:10:55.117Z,38.59
2023-05-15T16:13:21.915Z,38.85
2023-05-15T16:15:48.749Z,39.09
2023-05-15T16:18:15.597Z,39.54
2023-05-15T16:20:42.440Z,39.63
2023-05-15T16:23:11.711Z,40.31
2023-05-15T16:25:38.522Z,41.09
2023-05-15T16:28:05.341Z,41.79
2023-05-15T16:30:47.365Z,42.07
2023-05-15T16:33:17.690Z,42.46
2023-05-15T16:35:45.128Z,42.66
2023-05-15T16:38:13.473Z,43.41
2023-05-15T16:40:40.307Z,43.49
2023-05-15T16:43:07.268Z,44.09
2023-05-15T16:45:34.036Z,44.20
2023-05-15T16:48:00.975Z,44.33
2023-05-15T16:50:27.987Z,44.44
2023-05-15T16:52:55.067Z,44.61
2023-05-15T16:55:21.945Z,45.32
2023-05-15T16:57:48.666Z,45.57
2023-05-15T17:00:16.431Z,45.65
2023-05-15T17:02:44.055Z,45.38
2023-05-15T17:05:11.604Z,45.30
2023-05-15T17:07:39.118Z,45.49
2023-05-15T17:10:07.847Z,45.21
2023-05-15T17:12:35.509Z,45.12
2023-05-15T17:15:03.077Z,45.98
2023-05-15T17:17:29.910Z,46.26
2023-05-15T17:19:57.182Z,46.46
2023-05-15T17:22:24.129Z,47.29
2023-05-15T17:24:52.270Z,47.62
2023-05-15T17:27:19.679Z,47.67
2023-05-15T17:29:47.449Z,48.17
2023-05-15T17:32:14.309Z,48.27
2023-05-15T17:34:41.220Z,48.48
2023-05-15T17:37:08.377Z,48.90
2023-05-15T17:39:35.514Z,48.69
2023-05-15T17:42:03.381Z,48.48
2023-05-15T17:44:31.297Z,48.18
2023-05-15T17:46:58.599Z,48.20
2023-05-15T17:49:26.361Z,48.32
2023-05-15T17:51:53.780Z,48.26
2023-05-15T17:54:20.765Z,48.25
2023-05-15T17:56:48.343Z,48.27
2023-05-15T17:59:15.475Z,48.29
2023-05-15T18:01:42.624Z,48.15
2023-05-15T18:04:09.527Z,48.19
2023-05-15T18:06:36.799Z,48.39
2023-05-15T18:09:05.216Z,48.40
2023-05-15T18:11:32.081Z,48.56
2023-05-15T18:13:58.859Z,48.55
2023-05-15T18:16:25.803Z,48.74
2023-05-15T18:18:52.921Z,48.87
2023-05-15T18:21:20.081Z,49.32
2023-05-15T18:23:46.795Z,48.79
2023-05-15T18:26:13.568Z,49.07
2023-05-15T18:28:40.350Z,48.92
2023-05-15T18:31:07.409Z,48.86
2023-05-15T18:33:34.641Z,49.39
2023-05-15T18:36:01.443Z,49.32
2023-05-15T18:38:28.881Z,49.66
2023-05-15T18:40:55.676Z,49.26
2023-05-15T18:43:22.404Z,49.29
2023-05-15T18:45:49.192Z,49.45
2023-05-15T18:48:15.918Z,49.69
2023-05-15T18:50:42.807Z,50.11
2023-05-15T18:53:10.851Z,50.05
2023-05-15T18:55:38.959Z,50.09
2023-05-15T18:58:06.206Z,50.59
2023-05-15T19:00:39.022Z,50.91
2023-05-15T19:03:07.076Z,51.21
2023-05-15T19:05:34.329Z,51.04
2023-05-15T19:08:02.017Z,51.24
2023-05-15T19:10:29.775Z,51.66
2023-05-15T19:12:57.476Z,51.71
2023-05-15T19:15:25.377Z,51.74
2023-05-15T19:17:52.296Z,51.70
2023-05-15T19:20:19.503Z,51.66
2023-05-15T19:22:46.427Z,52.08
2023-05-15T19:25:13.310Z,52.30
2023-05-15T19:27:40.302Z,52.47
2023-05-15T19:30:07.953Z,52.57
2023-05-15T19:32:34.930Z,52.96
2023-05-15T19:35:02.767Z,53.10
2023-05-15T19:37:29.841Z,53.28
2023-05-15T19:39:57.224Z,53.57
2023-05-15T19:42:24.444Z,53.75
2023-05-15T19:44:51.207Z,54.06
2023-05-15T19:47:18.234Z,53.90
2023-05-15T19:49:45.926Z,54.15
2023-05-15T19:52:12.658Z,54.42
2023-05-15T19:54:39.360Z,54.95
2023-05-15T19:57:06.206Z,55.21
2023-05-15T19:59:32.980Z,55.34
2023-05-15T20:02:01.913Z,55.41
2023-05-15T20:04:29.350Z,55.43
2023-05-15T20:06:56.388Z,55.42
2023-05-15T20:09:23.284Z,55.55
2023-05-15T20:11:50.563Z,55.62
2023-05-15T20:14:17.487Z,56.08
2023-05-15T20:16:44.800Z,55.98
2023-05-15T20:19:12.675Z,56.65
2023-05-15T20:21:39.802Z,56.44
2023-05-15T20:24:07.132Z,56.64
2023-05-15T20:26:36.117Z,57.08
2023-05-15T20:29:03.696Z,57.22
2023-05-15T20:31:30.664Z,57.06
2023-05-15T20:33:57.692Z,56.79
2023-05-15T20:36:25.777Z,57.23
2023-05-15T20:38:52.947Z,57.25
2023-05-15T20:41:22.274Z,57.59
2023-05-15T20:43:49.850Z,57.65
2023-05-15T20:46:16.823Z,57.96
2023-05-15T20:48:43.542Z,58.28
2023-05-15T20:51:10.295Z,58.36
2023-05-15T20:53:36.994Z,58.63
2023-05-15T20:56:03.945Z,58.80
2023-05-15T20:58:30.800Z,58.83
2023-05-15T21:01:00.993Z,58.68
2023-05-15T21:03:29.058Z,58.93
2023-05-15T21:05:57.553Z,58.54
2023-05-15T21:08:25.643Z,58.66
2023-05-15T21:10:55.501Z,58.61
2023-05-15T21:13:22.458Z,58.78
2023-05-15T21:15:50.625Z,58.69
2023-05-15T21:18:19.571Z,59.01
2023-05-15T21:20:46.300Z,58.84
2023-05-15T21:23:13.565Z,58.90
2023-05-15T21:25:42.549Z,59.05
2023-05-15T21:28:09.561Z,59.28
2023-05-15T21:30:36.268Z,59.27
2023-05-15T21:33:04.105Z,59.32
2023-05-15T21:35:31.932Z,59.15
2023-05-15T21:37:58.803Z,59.51
2023-05-15T21:40:25.804Z,59.68
2023-05-15T21:42:52.754Z,59.91
2023-05-15T21:45:19.635Z,59.87
2023-05-15T21:47:46.370Z,59.76
2023-05-15T21:50:17.674Z,60.09
2023-05-15T21:52:44.426Z,60.12
2023-05-15T21:55:11.356Z,60.42
2023-05-15T21:57:38.246Z,60.69
2023-05-15T22:00:07.542Z,60.69
2023-05-15T22:02:35.028Z,60.60
2023-05-15T22:05:02.097Z,60.68
2023-05-15T22:07:28.818Z,60.48
2023-05-15T22:09:55.970Z,60.73
2023-05-15T22:12:22.852Z,60.79
2023-05-15T22:14:58.481Z,60.79
2023-05-15T22:17:29.194Z,60.54
2023-05-15T22:20:06.487Z,60.97
2023-05-15T22:22:35.191Z,61.15
2023-05-15T22:25:01.956Z,61.27
2023-05-15T22:27:28.775Z,61.25
2023-05-15T22:29:55.865Z,60.93
2023-05-15T22:32:23.316Z,61.09
2023-05-15T22:34:50.068Z,61.28
2023-05-15T22:37:16.797Z,61.25
2023-05-15T22:39:43.865Z,61.34
2023-05-15T22:42:10.650Z,61.39
2023-05-15T22:44:37.335Z,61.71
2023-05-15T22:47:04.258Z,61.58
2023-05-15T22:49:31.038Z,61.79
2023-05-15T22:51:58.269Z,61.75
2023-05-15T22:54:25.076Z,61.95
2023-05-15T22:56:52.591Z,62.02
2023-05-15T22:59:19.682Z,62.17
2023-05-15T23:01:46.886Z,62.17
2023-05-15T23:04:14.098Z,62.29
2023-05-15T23:06:41.159Z,62.44
2023-05-15T23:09:08.663Z,62.49
2023-05-15T23:11:35.652Z,62.59
2023-05-15T23:14:03.154Z,62.63
2023-05-15T23:16:31.191Z,62.76
2023-05-15T23:18:58.187Z,62.92
2023-05-15T23:21:25.067Z,63.06
2023-05-15T23:23:51.830Z,63.16
2023-05-15T23:26:18.599Z,63.42
2023-05-15T23:28:45.421Z,63.40
2023-05-15T23:31:15.227Z,63.58
2023-05-15T23:33:42.996Z,63.73
2023-05-15T23:36:09.970Z,63.94
2023-05-15T23:38:39.955Z,63.98
2023-05-15T23:41:06.770Z,64.15
2023-05-15T23:43:33.503Z,64.17
2023-05-15T23:46:00.377Z,64.19
2023-05-15T23:48:28.575Z,64.21
2023-05-15T23:50:55.479Z,64.60
2023-05-15T23:53:22.221Z,64.54
2023-05-15T23:55:49.082Z,64.59
2023-05-15T23:58:15.905Z,64.69
